LQTZ/TZL METAR and TAF weather

Enter ICAO airport designator
Station Type Date Time Source
LQTZ METAR 2022/12/08 11:30 UTC NOAA

LQTZ 081130Z VRB01KT 4000 -RA BR SCT006 OVC035 06/06 Q1010


Station Type Date Time Source
LQTZ Decoded METAR 2022/12/08 11:30 UTC NOAA

Tuzla, Bosnia and Herzegovina (LQTZ) 44-33N 018-42E
Dec 08, 2022 - 06:30 AM EST / 2022.12.08 1130 UTC
Wind: Variable at 1 MPH (1 KT):0
Visibility: 2 mile(s):0
Sky conditions: overcast
Weather: light rain; mist
Temperature: 42 F (6 C)
Dew Point: 42 F (6 C)
Relative Humidity: 100%
Pressure (altimeter): 29.83 in. Hg (1010 hPa)
ob: LQTZ 081130Z VRB01KT 4000 -RA BR SCT006 OVC035 06/06 Q1010
cycle: 11

Station Type Date Time Source
LQTZ TAF 2022/12/08 12:06 UTC NOAA

TAF LQTZ 081100Z 0812/0912 10005KT 9999 SCT005 BKN040 TX08/0813Z TN04/0905Z
TEMPO 0812/0817 3000 RA BR
TEMPO 0817/0909 2000 BR BKN004 BKN035 PROB30 0817/0906 0200 FG VV001

Example: see airport list